createdAt,value
2022-11-24T00:01:03.071Z,99678.00
2022-11-24T00:04:07.953Z,99676.38
2022-11-24T00:07:10.451Z,99675.69
2022-11-24T00:10:13.766Z,99682.56
2022-11-24T00:13:16.189Z,99681.44
2022-11-24T00:16:20.442Z,99696.41
2022-11-24T00:19:24.342Z,99686.59
2022-11-24T00:22:26.824Z,99691.75
2022-11-24T00:25:29.247Z,99688.63
2022-11-24T00:28:32.981Z,99687.81
2022-11-24T00:31:37.236Z,99687.63
2022-11-24T00:34:42.015Z,99693.31
2022-11-24T00:37:44.455Z,99694.13
2022-11-24T00:40:49.046Z,99700.34
2022-11-24T00:43:52.074Z,99703.34
2022-11-24T00:46:54.591Z,99697.31
2022-11-24T00:49:58.399Z,99698.97
2022-11-24T00:53:01.480Z,99708.97
2022-11-24T00:56:04.175Z,99710.88
2022-11-24T00:59:06.742Z,99705.84
2022-11-24T01:02:09.212Z,99710.00
2022-11-24T01:05:13.215Z,99707.91
2022-11-24T01:08:15.663Z,99711.41
2022-11-24T01:11:20.860Z,99709.22
2022-11-24T01:14:24.804Z,99707.22
2022-11-24T01:17:27.544Z,99710.31
2022-11-24T01:20:32.018Z,99712.28
2022-11-24T01:23:34.471Z,99716.56
2022-11-24T01:26:37.701Z,99720.41
2022-11-24T01:29:40.221Z,99711.44
2022-11-24T01:32:42.648Z,99710.38
2022-11-24T01:35:46.471Z,99722.75
2022-11-24T01:38:49.389Z,99717.38
2022-11-24T01:41:52.866Z,99715.84
2022-11-24T01:45:28.726Z,99722.47
2022-11-24T01:48:38.703Z,99718.16
2022-11-24T01:51:48.794Z,99724.78
2022-11-24T01:54:55.655Z,99722.03
2022-11-24T01:58:03.076Z,99725.91
2022-11-24T02:01:05.990Z,99722.06
2022-11-24T02:04:13.938Z,99719.69
2022-11-24T02:07:18.527Z,99724.63
2022-11-24T02:10:21.947Z,99727.25
2022-11-24T02:13:25.146Z,99724.97
2022-11-24T02:16:27.682Z,99734.22
2022-11-24T02:19:43.024Z,99731.56
2022-11-24T02:22:53.703Z,99728.88
2022-11-24T02:26:07.802Z,99729.25
2022-11-24T02:29:13.022Z,99725.75
2022-11-24T02:32:16.455Z,99726.50
2022-11-24T02:35:19.308Z,99727.72
2022-11-24T02:38:30.033Z,99728.75
2022-11-24T02:41:32.628Z,99731.75
2022-11-24T02:44:40.737Z,99729.81
2022-11-24T02:47:43.781Z,99732.09
2022-11-24T02:50:46.316Z,99726.69
2022-11-24T02:53:48.776Z,99726.75
2022-11-24T02:56:51.359Z,99721.31
2022-11-24T02:59:55.203Z,99717.16
2022-11-24T03:02:58.038Z,99727.06
2022-11-24T03:06:00.494Z,99722.97
2022-11-24T03:09:03.067Z,99722.97
2022-11-24T03:12:06.230Z,99733.69
2022-11-24T03:15:11.283Z,99727.53
2022-11-24T03:18:13.771Z,99734.91
2022-11-24T03:21:16.220Z,99740.25
2022-11-24T03:24:18.978Z,99743.81
2022-11-24T03:27:21.428Z,99748.78
2022-11-24T03:30:25.257Z,99748.03
2022-11-24T03:33:27.880Z,99744.44
2022-11-24T03:36:30.307Z,99752.13
2022-11-24T03:39:32.991Z,99753.16
2022-11-24T03:42:35.377Z,99758.38
2022-11-24T03:45:45.827Z,99751.53
2022-11-24T03:48:48.623Z,99755.78
2022-11-24T03:51:51.055Z,99763.41
2022-11-24T03:54:53.710Z,99768.34
2022-11-24T03:57:56.159Z,99763.72
2022-11-24T04:00:59.964Z,99771.22
2022-11-24T04:04:03.516Z,99773.63
2022-11-24T04:07:05.927Z,99774.44
2022-11-24T04:10:08.689Z,99774.44
2022-11-24T04:13:13.063Z,99775.63
2022-11-24T04:16:16.845Z,99783.38
2022-11-24T04:19:19.473Z,99779.94
2022-11-24T04:22:22.072Z,99787.41
2022-11-24T04:25:24.573Z,99797.41
2022-11-24T04:28:27.082Z,99796.22
2022-11-24T04:31:31.668Z,99808.81
2022-11-24T04:34:34.556Z,99810.06
2022-11-24T04:37:37.380Z,99812.84
2022-11-24T04:40:39.919Z,99809.72
2022-11-24T04:43:42.338Z,99824.31
2022-11-24T04:46:46.460Z,99827.66
2022-11-24T04:49:49.230Z,99828.06
2022-11-24T04:52:52.565Z,99837.47
2022-11-24T04:55:54.996Z,99842.56
2022-11-24T04:58:57.502Z,99845.50
2022-11-24T05:02:01.349Z,99847.06
2022-11-24T05:05:04.418Z,99857.34
2022-11-24T05:08:06.845Z,99855.91
2022-11-24T05:11:09.543Z,99866.81
2022-11-24T05:14:11.980Z,99871.78
2022-11-24T05:17:15.732Z,99871.19
2022-11-24T05:20:18.656Z,99875.72
2022-11-24T05:23:21.218Z,99885.88
2022-11-24T05:26:23.707Z,99889.38
2022-11-24T05:29:26.139Z,99893.00
2022-11-24T05:32:29.985Z,99896.78
2022-11-24T05:35:32.663Z,99902.19
2022-11-24T05:38:35.692Z,99904.25
2022-11-24T05:41:38.438Z,99911.25
2022-11-24T05:44:40.823Z,99910.09
2022-11-24T05:47:45.128Z,99921.31
2022-11-24T05:50:53.528Z,99924.69
2022-11-24T05:53:56.187Z,99932.72
2022-11-24T05:56:58.902Z,99931.47
2022-11-24T06:00:02.253Z,99923.66
2022-11-24T06:03:16.210Z,99937.53
2022-11-24T06:06:18.706Z,99941.06
2022-11-24T06:09:21.208Z,99946.03
2022-11-24T06:12:23.702Z,99950.63
2022-11-24T06:15:26.185Z,99946.25
2022-11-24T06:18:30.015Z,99960.47
2022-11-24T06:21:32.576Z,99954.00
2022-11-24T06:24:35.187Z,99963.53
2022-11-24T06:27:37.777Z,99967.78
2022-11-24T06:30:40.290Z,99972.69
2022-11-24T06:33:44.385Z,99979.16
2022-11-24T06:36:47.070Z,99982.59
2022-11-24T06:39:49.584Z,99993.19
2022-11-24T06:42:52.707Z,99988.34
2022-11-24T06:45:55.480Z,99985.56
2022-11-24T06:49:02.525Z,99981.53
2022-11-24T06:52:05.224Z,99988.47
2022-11-24T06:55:09.783Z,99992.06
2022-11-24T06:58:12.391Z,99998.66
2022-11-24T07:01:33.555Z,99986.81
2022-11-24T07:04:37.667Z,99995.63
2022-11-24T07:07:41.015Z,100003.91
2022-11-24T07:10:43.605Z,100000.84
2022-11-24T07:13:56.679Z,100012.06
2022-11-24T07:21:18.239Z,100002.91
2022-11-24T07:24:27.095Z,100011.47
2022-11-24T07:32:05.066Z,100028.41
2022-11-24T07:36:23.630Z,100011.13
2022-11-24T07:39:26.004Z,100029.13
2022-11-24T07:42:31.168Z,100043.19
2022-11-24T07:45:33.750Z,100049.31
2022-11-24T07:48:36.487Z,100059.84
2022-11-24T07:51:39.183Z,100056.25
2022-11-24T07:54:42.995Z,100067.47
2022-11-24T07:57:45.493Z,100068.75
2022-11-24T08:00:56.572Z,100069.75
2022-11-24T08:04:01.420Z,100081.03
2022-11-24T08:07:05.689Z,100085.72
2022-11-24T08:10:10.260Z,100087.56
2022-11-24T08:13:12.765Z,100093.38
2022-11-24T08:16:17.495Z,100096.38
2022-11-24T08:19:21.693Z,100100.56
2022-11-24T08:22:24.433Z,100093.53
2022-11-24T08:25:32.554Z,100103.09
2022-11-24T08:28:35.842Z,100112.16
2022-11-24T08:31:39.171Z,100114.72
2022-11-24T08:34:41.737Z,100119.66
2022-11-24T08:37:44.365Z,100120.34
2022-11-24T08:40:48.381Z,100117.25
2022-11-24T08:43:51.227Z,100109.88
2022-11-24T08:46:54.136Z,100123.06
2022-11-24T08:49:56.731Z,100121.94
2022-11-24T08:52:59.273Z,100123.06
2022-11-24T08:56:04.372Z,100128.19
2022-11-24T08:59:06.947Z,100130.88
2022-11-24T09:02:15.422Z,100135.47
2022-11-24T09:05:49.999Z,100131.13
2022-11-24T09:08:40.745Z,100129.31
2022-11-24T09:11:46.623Z,100136.63
2022-11-24T09:14:52.201Z,100131.03
2022-11-24T09:17:54.983Z,100138.50
2022-11-24T09:21:06.927Z,100140.94
2022-11-24T09:24:10.736Z,100137.81
2022-11-24T09:27:14.734Z,100129.00
2022-11-24T09:30:18.527Z,100138.03
2022-11-24T09:33:21.853Z,100135.56
2022-11-24T09:36:25.473Z,100125.34
2022-11-24T09:39:27.955Z,100133.81
2022-11-24T09:42:39.757Z,100138.97
2022-11-24T09:46:04.906Z,100150.06
2022-11-24T09:49:15.488Z,100140.34
2022-11-24T09:52:22.391Z,100146.78
2022-11-24T09:55:35.480Z,100148.44
2022-11-24T09:58:45.258Z,100132.81
2022-11-24T10:01:49.866Z,100144.88
2022-11-24T10:04:54.776Z,100138.06
2022-11-24T10:08:09.383Z,100147.06
2022-11-24T10:11:18.834Z,100141.41
2022-11-24T10:14:46.076Z,100141.09
2022-11-24T10:18:09.360Z,100144.25
2022-11-24T10:21:34.815Z,100143.09
2022-11-24T10:25:03.171Z,100143.44
2022-11-24T10:28:12.499Z,100145.34
2022-11-24T10:31:29.642Z,100133.53
2022-11-24T10:34:35.291Z,100152.22
2022-11-24T10:37:45.820Z,100145.78
2022-11-24T10:40:59.612Z,100155.19
2022-11-24T10:44:04.892Z,100149.59
2022-11-24T10:47:18.034Z,100150.47
2022-11-24T10:50:25.277Z,100152.88
2022-11-24T10:53:48.305Z,100147.22
2022-11-24T10:56:53.068Z,100159.00
2022-11-24T10:59:56.436Z,100150.56
2022-11-24T11:03:17.459Z,100156.38
2022-11-24T11:06:22.816Z,100163.53
2022-11-24T11:09:25.423Z,100153.75
2022-11-24T11:12:45.714Z,100154.97
2022-11-24T11:15:48.471Z,100155.81
2022-11-24T11:18:53.055Z,100157.78
2022-11-24T11:22:01.222Z,100155.50
2022-11-24T11:25:18.725Z,100160.28
2022-11-24T11:28:28.507Z,100164.75
2022-11-24T11:31:34.401Z,100161.38
2022-11-24T11:34:38.776Z,100159.00
2022-11-24T11:37:42.287Z,100171.84
2022-11-24T11:40:47.473Z,100166.47
2022-11-24T11:43:57.474Z,100168.00
2022-11-24T11:47:05.685Z,100170.84
2022-11-24T11:50:16.172Z,100171.66
2022-11-24T11:53:27.591Z,100178.59
2022-11-24T11:56:33.291Z,100180.59
2022-11-24T11:59:51.389Z,100189.06
2022-11-24T12:03:19.521Z,100177.06
2022-11-24T12:06:36.512Z,100180.97
2022-11-24T12:09:56.447Z,100185.72
2022-11-24T12:13:10.276Z,100190.38
2022-11-24T12:16:25.210Z,100187.09
2022-11-24T12:19:38.604Z,100196.97
2022-11-24T12:22:49.841Z,100198.88
2022-11-24T12:26:00.394Z,100192.81
2022-11-24T12:29:24.010Z,100194.75
2022-11-24T12:32:41.791Z,100195.13
2022-11-24T12:35:46.567Z,100200.41
2022-11-24T12:38:58.331Z,100203.53
2022-11-24T12:42:09.911Z,100207.69
2022-11-24T12:45:16.985Z,100208.50
2022-11-24T12:48:32.670Z,100208.22
2022-11-24T12:51:38.111Z,100202.13
2022-11-24T12:54:42.200Z,100211.34
2022-11-24T12:57:52.048Z,100209.03
2022-11-24T13:01:14.676Z,100211.66
2022-11-24T13:04:32.964Z,100211.94
2022-11-24T13:07:42.871Z,100212.59
2022-11-24T13:10:57.211Z,100209.25
2022-11-24T13:14:04.696Z,100214.72
2022-11-24T13:17:41.996Z,100208.56
2022-11-24T13:20:47.486Z,100200.50
2022-11-24T13:23:56.650Z,100210.41
2022-11-24T13:27:41.334Z,100212.00
2022-11-24T13:31:07.361Z,100215.47
2022-11-24T13:34:43.099Z,100214.69
2022-11-24T13:37:51.455Z,100218.06
2022-11-24T13:41:13.304Z,100218.00
2022-11-24T13:44:25.498Z,100221.56
2022-11-24T13:47:36.705Z,100232.78
2022-11-24T13:51:17.302Z,100230.03
2022-11-24T13:54:21.294Z,100236.94
2022-11-24T13:57:34.083Z,100247.88
2022-11-24T14:01:11.490Z,100241.69
2022-11-24T14:04:34.974Z,100253.09
2022-11-24T14:07:37.693Z,100260.63
2022-11-24T14:10:43.044Z,100259.34
2022-11-24T14:13:45.502Z,100251.91
2022-11-24T14:16:49.311Z,100263.69
2022-11-24T14:19:54.106Z,100263.25
2022-11-24T14:22:56.624Z,100263.06
2022-11-24T14:25:59.127Z,100262.50
2022-11-24T14:29:07.085Z,100260.09
2022-11-24T14:32:16.860Z,100271.69
2022-11-24T14:35:22.779Z,100276.00
2022-11-24T14:38:25.522Z,100282.13
2022-11-24T14:41:28.507Z,100280.16
2022-11-24T14:44:35.155Z,100283.88
2022-11-24T14:47:45.181Z,100292.38
2022-11-24T14:50:47.908Z,100282.44
2022-11-24T14:53:53.110Z,100285.94
2022-11-24T14:56:57.848Z,100282.78
2022-11-24T15:00:17.134Z,100296.16
2022-11-24T15:03:20.932Z,100298.34
2022-11-24T15:06:23.750Z,100300.28
2022-11-24T15:09:31.356Z,100321.03
2022-11-24T15:12:40.738Z,100318.09
2022-11-24T15:15:48.367Z,100315.53
2022-11-24T15:18:59.225Z,100326.59
2022-11-24T15:22:26.841Z,100325.75
2022-11-24T15:25:32.469Z,100335.22
2022-11-24T15:28:37.766Z,100343.66
2022-11-24T15:31:44.192Z,100341.34
2022-11-24T15:34:51.619Z,100345.44
2022-11-24T15:37:54.148Z,100344.94
2022-11-24T15:40:59.589Z,100355.78
2022-11-24T15:44:02.080Z,100371.22
2022-11-24T15:47:04.604Z,100367.38
2022-11-24T15:50:09.928Z,100369.47
2022-11-24T15:53:18.216Z,100371.38
2022-11-24T15:56:24.376Z,100379.47
2022-11-24T15:59:27.044Z,100379.72
2022-11-24T16:02:29.600Z,100379.09
2022-11-24T16:05:33.719Z,100374.06
2022-11-24T16:08:36.110Z,100381.91
2022-11-24T16:11:38.748Z,100383.81
2022-11-24T16:14:41.309Z,100383.38
2022-11-24T16:17:43.803Z,100380.34
2022-11-24T16:20:47.746Z,100381.81
2022-11-24T16:23:50.264Z,100387.47
2022-11-24T16:26:52.758Z,100382.06
2022-11-24T16:29:55.247Z,100385.09
2022-11-24T16:32:57.725Z,100383.38
2022-11-24T16:36:01.516Z,100388.69
2022-11-24T16:39:04.240Z,100381.03
2022-11-24T16:42:06.939Z,100389.69
2022-11-24T16:45:11.732Z,100389.97
2022-11-24T16:48:14.223Z,100389.28
2022-11-24T16:51:19.599Z,100392.41
2022-11-24T16:54:22.239Z,100393.72
2022-11-24T16:57:24.656Z,100412.97
2022-11-24T17:00:27.392Z,100410.38
2022-11-24T17:03:30.695Z,100412.88
2022-11-24T17:06:35.127Z,100416.09
2022-11-24T17:09:40.756Z,100418.16
2022-11-24T17:12:44.837Z,100425.03
2022-11-24T17:15:52.553Z,100433.25
2022-11-24T17:18:58.589Z,100435.09
2022-11-24T17:22:02.651Z,100434.56
2022-11-24T17:25:06.283Z,100436.25
2022-11-24T17:28:08.863Z,100443.66
2022-11-24T17:31:18.149Z,100437.00
2022-11-24T17:34:21.088Z,100444.25
2022-11-24T17:37:25.015Z,100437.13
2022-11-24T17:40:29.425Z,100443.63
2022-11-24T17:43:32.687Z,100449.59
2022-11-24T17:46:37.079Z,100442.06
2022-11-24T17:49:40.351Z,100444.59
2022-11-24T17:52:44.206Z,100443.91
2022-11-24T17:55:46.860Z,100456.81
2022-11-24T17:58:54.213Z,100462.06
2022-11-24T18:01:58.082Z,100462.44
2022-11-24T18:05:00.648Z,100464.91
2022-11-24T18:08:05.079Z,100465.78
2022-11-24T18:11:09.612Z,100470.16
2022-11-24T18:14:12.745Z,100471.63
2022-11-24T18:17:15.534Z,100466.31
2022-11-24T18:20:19.419Z,100472.50
2022-11-24T18:23:24.227Z,100471.81
2022-11-24T18:26:26.900Z,100479.47
2022-11-24T18:29:31.645Z,100478.19
2022-11-24T18:32:34.230Z,100482.88
2022-11-24T18:35:39.629Z,100493.75
2022-11-24T18:38:44.449Z,100489.13
2022-11-24T18:41:47.236Z,100496.97
2022-11-24T18:44:53.973Z,100505.38
2022-11-24T18:47:56.971Z,100506.06
2022-11-24T18:50:59.495Z,100502.16
2022-11-24T18:54:05.342Z,100506.75
2022-11-24T18:57:08.228Z,100507.63
2022-11-24T19:00:12.464Z,100512.44
2022-11-24T19:03:15.185Z,100518.69
2022-11-24T19:06:20.185Z,100518.44
2022-11-24T19:09:25.513Z,100523.81
2022-11-24T19:12:28.361Z,100526.69
2022-11-24T19:15:32.901Z,100531.19
2022-11-24T19:18:35.655Z,100536.75
2022-11-24T19:21:40.424Z,100531.22
2022-11-24T19:24:46.549Z,100545.41
2022-11-24T19:27:49.371Z,100547.91
2022-11-24T19:30:52.068Z,100542.00
2022-11-24T19:33:57.924Z,100554.44
2022-11-24T19:37:00.637Z,100561.97
2022-11-24T19:40:06.396Z,100570.25
2022-11-24T19:43:09.102Z,100567.88
2022-11-24T19:46:14.310Z,100566.84
2022-11-24T19:49:16.824Z,100577.22
2022-11-24T19:52:19.822Z,100578.22
2022-11-24T19:55:23.871Z,100579.16
2022-11-24T19:58:26.450Z,100579.91
2022-11-24T20:01:31.597Z,100575.22
2022-11-24T20:04:38.280Z,100580.41
2022-11-24T20:07:41.106Z,100583.31
2022-11-24T20:10:45.408Z,100588.44
2022-11-24T20:13:49.760Z,100598.00
2022-11-24T20:16:52.238Z,100606.03
2022-11-24T20:19:54.989Z,100606.19
2022-11-24T20:22:57.600Z,100606.19
2022-11-24T20:26:05.530Z,100606.53
2022-11-24T20:29:13.011Z,100620.16
2022-11-24T20:32:19.491Z,100619.22
2022-11-24T20:35:22.415Z,100618.66
2022-11-24T20:38:24.894Z,100625.75
2022-11-24T20:41:30.900Z,100629.59
2022-11-24T20:44:33.741Z,100636.09
2022-11-24T20:47:36.720Z,100631.06
2022-11-24T20:50:39.470Z,100637.53
2022-11-24T20:53:42.396Z,100631.72
2022-11-24T20:56:47.815Z,100645.75
2022-11-24T20:59:52.300Z,100645.94
2022-11-24T21:02:57.640Z,100641.06
2022-11-24T21:06:00.982Z,100639.50
2022-11-24T21:09:04.944Z,100648.31
2022-11-24T21:12:09.072Z,100661.38
2022-11-24T21:15:11.638Z,100668.44
2022-11-24T21:18:14.433Z,100661.66
2022-11-24T21:21:19.572Z,100664.25
2022-11-24T21:24:22.183Z,100668.38
2022-11-24T21:27:27.082Z,100673.78
2022-11-24T21:30:29.859Z,100676.25
2022-11-24T21:33:32.897Z,100675.78
2022-11-24T21:36:35.820Z,100682.41
2022-11-24T21:39:38.307Z,100687.78
2022-11-24T21:42:42.161Z,100692.69
2022-11-24T21:45:44.609Z,100692.88
2022-11-24T21:48:47.095Z,100692.88
2022-11-24T21:51:55.172Z,100693.69
2022-11-24T21:54:57.782Z,100700.63
2022-11-24T21:58:01.557Z,100702.69
2022-11-24T22:01:06.267Z,100691.00
2022-11-24T22:04:09.490Z,100702.34
2022-11-24T22:07:12.665Z,100705.84
2022-11-24T22:10:15.377Z,100701.59
2022-11-24T22:13:19.450Z,100707.59
2022-11-24T22:16:24.734Z,100722.09
2022-11-24T22:19:27.267Z,100725.09
2022-11-24T22:22:29.703Z,100720.34
2022-11-24T22:25:33.478Z,100728.09
2022-11-24T22:28:37.872Z,100723.50
2022-11-24T22:31:40.368Z,100727.31
2022-11-24T22:34:42.866Z,100723.34
2022-11-24T22:37:45.332Z,100724.44
2022-11-24T22:40:47.943Z,100728.69
2022-11-24T22:43:52.143Z,100730.72
2022-11-24T22:46:54.534Z,100736.09
2022-11-24T22:49:58.047Z,100743.38
2022-11-24T22:53:00.423Z,100740.34
2022-11-24T22:56:03.874Z,100731.78
2022-11-24T22:59:07.878Z,100741.69
2022-11-24T23:02:10.289Z,100747.97
2022-11-24T23:05:16.738Z,100752.97
2022-11-24T23:08:21.831Z,100760.53
2022-11-24T23:11:31.656Z,100768.66
2022-11-24T23:14:36.849Z,100768.03
2022-11-24T23:17:39.524Z,100765.53
2022-11-24T23:20:41.919Z,100774.28
2022-11-24T23:23:44.925Z,100778.19
2022-11-24T23:26:47.347Z,100778.66
2022-11-24T23:29:51.556Z,100787.50
2022-11-24T23:32:55.863Z,100788.03
2022-11-24T23:36:01.085Z,100788.38
2022-11-24T23:39:04.532Z,100804.09
2022-11-24T23:42:06.986Z,100807.63
2022-11-24T23:45:11.230Z,100809.03
2022-11-24T23:48:13.636Z,100809.03
2022-11-24T23:51:18.149Z,100809.28
2022-11-24T23:54:21.338Z,100812.22
2022-11-24T23:57:23.844Z,100820.19
